Time;durP1;ratioP1;P1;durP2;ratioP2;P2;SDS_P1;SDS_P2;PMS_P1;PMS_P2;Temp;Humidity;BMP_temperature;BMP_pressure;BME280_temperature;BME280_humidity;BME280_pressure;Samples;Min_cycle;Max_cycle;Signal;HPM_P1;HPM_P2
2022/01/11 00:01:55;;;;;;;;;;;7.50;99.90;;;;;;5153039;27;19954;-78
2022/01/11 00:04:28;;;;;;;;;;;7.50;99.90;;;;;;5157769;27;19919;-78
2022/01/11 00:06:54;;;;;;;;;;;7.40;99.90;;;;;;5158281;27;19914;-78
2022/01/11 00:09:23;;;;;;;;;;;7.50;99.90;;;;;;5159391;27;20005;-78
2022/01/11 00:11:49;;;;;;;;;;;7.40;99.90;;;;;;5155883;27;20002;-77
2022/01/11 00:14:15;;;;;;;;;;;7.40;99.90;;;;;;5154312;27;19918;-77
2022/01/11 00:16:41;;;;;;;;;;;7.30;99.90;;;;;;5153777;27;19907;-77
2022/01/11 00:19:07;;;;;;;;;;;7.30;99.90;;;;;;5154287;27;20313;-78
2022/01/11 00:21:33;;;;;;;;;;;7.30;99.90;;;;;;5154208;27;19932;-78
2022/01/11 00:26:43;;;;;;;;;;;7.20;99.90;;;;;;5153462;27;19932;-78
2022/01/11 00:29:08;;;;;;;;;;;7.20;99.90;;;;;;5154696;27;20376;-78
2022/01/11 00:31:34;;;;;;;;;;;7.20;99.90;;;;;;5153947;27;20403;-76
2022/01/11 00:34:01;;;;;;;;;;;7.30;99.90;;;;;;5153237;27;19903;-76
2022/01/11 00:36:40;;;;;;;;;;;7.20;99.90;;;;;;5153178;27;19911;-76
2022/01/11 00:39:05;;;;;;;;;;;7.30;99.90;;;;;;5153331;27;19911;-76
2022/01/11 00:41:31;;;;;;;;;;;7.40;99.90;;;;;;5153747;27;19914;-76
2022/01/11 00:43:57;;;;;;;;;;;7.40;99.90;;;;;;5153140;27;19997;-76
2022/01/11 00:46:22;;;;;;;;;;;7.40;99.90;;;;;;5153852;27;19918;-76
2022/01/11 00:48:48;;;;;;;;;;;7.40;99.90;;;;;;5152929;27;19918;-76
2022/01/11 00:51:13;;;;;;;;;;;7.40;99.90;;;;;;5153782;27;19911;-77
2022/01/11 00:53:42;;;;;;;;;;;7.40;99.90;;;;;;5153372;27;19914;-76
2022/01/11 00:56:08;;;;;;;;;;;7.40;99.90;;;;;;5154061;27;19911;-76
2022/01/11 00:58:33;;;;;;;;;;;7.40;99.90;;;;;;5153542;27;19911;-77
2022/01/11 01:00:59;;;;;;;;;;;7.40;99.90;;;;;;5152284;27;20347;-76
2022/01/11 01:03:25;;;;;;;;;;;7.40;99.90;;;;;;5153331;27;19918;-76
2022/01/11 01:05:51;;;;;;;;;;;7.50;99.90;;;;;;5152861;27;19972;-77
2022/01/11 01:08:16;;;;;;;;;;;7.40;99.90;;;;;;5153139;27;20324;-76
2022/01/11 01:10:45;;;;;;;;;;;7.50;99.90;;;;;;5157809;27;19956;-75
2022/01/11 01:13:14;;;;;;;;;;;7.50;99.90;;;;;;5141363;27;19918;-76
2022/01/11 01:15:40;;;;;;;;;;;7.50;99.90;;;;;;5160173;27;19914;-76
2022/01/11 01:18:06;;;;;;;;;;;7.50;99.90;;;;;;5159877;27;19946;-76
2022/01/11 01:20:32;;;;;;;;;;;7.50;99.90;;;;;;5160839;27;19915;-76
2022/01/11 01:22:58;;;;;;;;;;;7.50;99.90;;;;;;5159053;27;19955;-76
2022/01/11 01:25:24;;;;;;;;;;;7.50;99.90;;;;;;5160171;27;20268;-76
2022/01/11 01:27:53;;;;;;;;;;;7.50;99.90;;;;;;5159554;27;20006;-76
2022/01/11 01:30:20;;;;;;;;;;;7.50;99.90;;;;;;5159935;27;19914;-77
2022/01/11 01:32:48;;;;;;;;;;;7.50;99.90;;;;;;5159145;27;19914;-77
2022/01/11 01:35:14;;;;;;;;;;;7.50;99.90;;;;;;5160240;27;19908;-77
2022/01/11 01:37:39;;;;;;;;;;;7.50;99.90;;;;;;5141352;27;19907;-77
2022/01/11 01:40:05;;;;;;;;;;;7.50;99.90;;;;;;5159132;27;19914;-78
2022/01/11 01:42:32;;;;;;;;;;;7.40;99.90;;;;;;5159586;27;19907;-77
2022/01/11 01:45:03;;;;;;;;;;;7.40;99.90;;;;;;5159822;27;20379;-77
2022/01/11 01:47:28;;;;;;;;;;;7.40;99.90;;;;;;5160585;27;19907;-76
2022/01/11 01:49:54;;;;;;;;;;;7.40;99.90;;;;;;5159512;27;19907;-77
2022/01/11 01:52:20;;;;;;;;;;;7.40;99.90;;;;;;5160641;27;19914;-76
2022/01/11 01:54:45;;;;;;;;;;;7.40;99.90;;;;;;5159642;27;20352;-75
2022/01/11 01:57:11;;;;;;;;;;;7.40;99.90;;;;;;5161008;27;19907;-76
2022/01/11 01:59:36;;;;;;;;;;;7.30;99.90;;;;;;5160668;27;19915;-76
2022/01/11 02:02:03;;;;;;;;;;;7.40;99.90;;;;;;5159372;27;19903;-76
2022/01/11 02:04:29;;;;;;;;;;;7.40;99.90;;;;;;5160416;27;19972;-76
2022/01/11 02:06:54;;;;;;;;;;;7.40;99.90;;;;;;5159486;27;19911;-76
2022/01/11 02:09:20;;;;;;;;;;;7.30;99.90;;;;;;5160573;27;19946;-76
2022/01/11 02:11:47;;;;;;;;;;;7.40;99.90;;;;;;5158875;27;20463;-76
2022/01/11 02:14:13;;;;;;;;;;;7.40;99.90;;;;;;5160043;27;19907;-77
2022/01/11 02:16:39;;;;;;;;;;;7.30;99.90;;;;;;5160535;27;19907;-77
2022/01/11 02:19:05;;;;;;;;;;;7.30;99.90;;;;;;5159412;27;20355;-77
2022/01/11 02:21:30;;;;;;;;;;;7.40;99.90;;;;;;5157820;27;20343;-77
2022/01/11 02:23:57;;;;;;;;;;;7.40;99.90;;;;;;5155582;27;19950;-77
2022/01/11 02:26:22;;;;;;;;;;;7.30;99.90;;;;;;5157114;27;19911;-77
2022/01/11 02:28:48;;;;;;;;;;;7.30;99.90;;;;;;5156365;27;19933;-76
2022/01/11 02:31:14;;;;;;;;;;;7.30;99.90;;;;;;5156997;27;20319;-76
2022/01/11 02:33:43;;;;;;;;;;;7.30;99.90;;;;;;5156814;27;20006;-76
2022/01/11 02:36:18;;;;;;;;;;;7.30;99.90;;;;;;5156114;27;19907;-76
2022/01/11 02:38:46;;;;;;;;;;;7.30;99.90;;;;;;5156381;27;19968;-76
2022/01/11 02:41:11;;;;;;;;;;;7.30;99.90;;;;;;5156222;27;19915;-76
2022/01/11 02:43:46;;;;;;;;;;;7.40;99.90;;;;;;5137943;27;19911;-76
2022/01/11 02:46:11;;;;;;;;;;;7.20;99.90;;;;;;5156491;27;19911;-76
2022/01/11 02:48:40;;;;;;;;;;;7.20;99.90;;;;;;5156580;27;20328;-76
2022/01/11 02:51:06;;;;;;;;;;;7.20;99.90;;;;;;5155855;27;19918;-77
2022/01/11 02:53:31;;;;;;;;;;;7.20;99.90;;;;;;5156629;27;19908;-77
2022/01/11 02:55:57;;;;;;;;;;;7.20;99.90;;;;;;5137071;27;19907;-76
2022/01/11 02:58:22;;;;;;;;;;;7.10;99.90;;;;;;5156525;27;19911;-76
2022/01/11 03:00:48;;;;;;;;;;;7.00;99.90;;;;;;5155362;27;19911;-75
2022/01/11 03:03:20;;;;;;;;;;;7.00;99.90;;;;;;5156184;27;20244;-76
2022/01/11 03:05:47;;;;;;;;;;;7.00;99.90;;;;;;5155746;27;20341;-75
2022/01/11 03:08:13;;;;;;;;;;;7.00;99.90;;;;;;5155863;27;19940;-76
2022/01/11 03:10:38;;;;;;;;;;;6.90;99.90;;;;;;5155941;27;20394;-76
2022/01/11 03:13:05;;;;;;;;;;;6.90;99.90;;;;;;5155295;27;19946;-76
2022/01/11 03:15:31;;;;;;;;;;;6.90;99.90;;;;;;5156200;27;19943;-76
2022/01/11 03:17:57;;;;;;;;;;;6.90;99.90;;;;;;5155328;27;19989;-76
2022/01/11 03:20:22;;;;;;;;;;;6.90;99.90;;;;;;5156056;27;20064;-76
2022/01/11 03:22:48;;;;;;;;;;;6.90;99.90;;;;;;5155810;27;19911;-75
2022/01/11 03:25:14;;;;;;;;;;;6.90;99.90;;;;;;5155473;27;19975;-75
2022/01/11 03:27:40;;;;;;;;;;;6.90;99.90;;;;;;5155951;27;19922;-75
2022/01/11 03:30:06;;;;;;;;;;;6.90;99.90;;;;;;5155003;27;19907;-76
2022/01/11 03:32:32;;;;;;;;;;;6.80;99.90;;;;;;5139723;27;19930;-75
2022/01/11 03:34:58;;;;;;;;;;;6.90;99.90;;;;;;5159554;27;20352;-75
2022/01/11 03:37:23;;;;;;;;;;;6.90;99.90;;;;;;5156386;27;19914;-76
2022/01/11 03:39:49;;;;;;;;;;;6.90;99.90;;;;;;5155430;27;19911;-74
2022/01/11 03:42:14;;;;;;;;;;;6.90;99.90;;;;;;5154832;27;19999;-75
2022/01/11 03:44:40;;;;;;;;;;;6.90;99.90;;;;;;5155480;27;19915;-76
2022/01/11 03:47:06;;;;;;;;;;;6.90;99.90;;;;;;5154752;27;20366;-76
2022/01/11 03:49:32;;;;;;;;;;;6.90;99.90;;;;;;5155241;27;19914;-75
2022/01/11 03:51:57;;;;;;;;;;;6.90;99.90;;;;;;5154679;27;19938;-76
2022/01/11 03:54:26;;;;;;;;;;;6.90;99.90;;;;;;5155289;27;19907;-76
2022/01/11 03:56:53;;;;;;;;;;;6.90;99.90;;;;;;5154705;27;19907;-75
2022/01/11 03:59:18;;;;;;;;;;;6.90;99.90;;;;;;5155249;27;19911;-75
2022/01/11 04:01:44;;;;;;;;;;;6.90;99.90;;;;;;5155069;27;19952;-76
2022/01/11 04:04:10;;;;;;;;;;;6.90;99.90;;;;;;5154121;27;19931;-76
2022/01/11 04:06:37;;;;;;;;;;;6.90;99.90;;;;;;5155303;27;19978;-75
2022/01/11 04:09:04;;;;;;;;;;;6.90;99.90;;;;;;5154414;27;19908;-75
2022/01/11 04:11:29;;;;;;;;;;;6.90;99.90;;;;;;5154584;27;20064;-76
2022/01/11 04:13:55;;;;;;;;;;;6.90;99.90;;;;;;5153922;27;20006;-75
2022/01/11 04:16:20;;;;;;;;;;;6.90;99.90;;;;;;5155203;27;19908;-76
2022/01/11 04:18:46;;;;;;;;;;;6.90;99.90;;;;;;5154653;27;19907;-76
2022/01/11 04:21:12;;;;;;;;;;;6.90;99.90;;;;;;5135498;27;19913;-76
2022/01/11 04:23:38;;;;;;;;;;;6.90;99.90;;;;;;5154763;27;19919;-76
2022/01/11 04:26:04;;;;;;;;;;;6.90;99.90;;;;;;5153710;27;20360;-75
2022/01/11 04:28:30;;;;;;;;;;;6.80;99.90;;;;;;5136387;27;19907;-76
2022/01/11 04:31:02;;;;;;;;;;;6.80;99.90;;;;;;5153954;27;20420;-75
2022/01/11 04:33:29;;;;;;;;;;;6.70;99.90;;;;;;5154701;27;19918;-76
2022/01/11 04:35:55;;;;;;;;;;;6.70;99.90;;;;;;5154144;27;20275;-75
2022/01/11 04:38:21;;;;;;;;;;;6.70;99.90;;;;;;5154276;27;19907;-76
2022/01/11 04:40:48;;;;;;;;;;;6.60;99.90;;;;;;5154562;27;19914;-76
2022/01/11 04:43:13;;;;;;;;;;;6.60;99.90;;;;;;5153611;27;19941;-76
2022/01/11 04:45:39;;;;;;;;;;;6.60;99.90;;;;;;5153691;27;19958;-77
2022/01/11 04:48:05;;;;;;;;;;;6.60;99.90;;;;;;5152706;27;19907;-75
2022/01/11 04:50:31;;;;;;;;;;;6.60;99.90;;;;;;5154466;27;19950;-77
2022/01/11 04:52:57;;;;;;;;;;;6.50;99.90;;;;;;5153814;27;19911;-76
2022/01/11 04:55:23;;;;;;;;;;;6.50;99.90;;;;;;5154373;27;19907;-77
2022/01/11 04:57:48;;;;;;;;;;;6.50;99.90;;;;;;5154268;27;19952;-77
2022/01/11 05:00:15;;;;;;;;;;;6.40;99.90;;;;;;5153526;27;19914;-76
2022/01/11 05:02:41;;;;;;;;;;;6.40;99.90;;;;;;5135723;27;19907;-77
2022/01/11 05:05:07;;;;;;;;;;;6.40;99.90;;;;;;5152946;27;19919;-77
2022/01/11 05:07:32;;;;;;;;;;;6.40;99.90;;;;;;5135832;27;19913;-77
2022/01/11 05:09:58;;;;;;;;;;;6.40;99.90;;;;;;5153190;27;19915;-75
2022/01/11 05:12:23;;;;;;;;;;;6.30;99.90;;;;;;5154092;27;19907;-77
2022/01/11 05:14:49;;;;;;;;;;;6.30;99.90;;;;;;5153957;27;19914;-77
2022/01/11 05:17:15;;;;;;;;;;;6.20;99.90;;;;;;5153226;27;19911;-76
2022/01/11 05:19:41;;;;;;;;;;;6.20;99.90;;;;;;5135595;27;20324;-77
2022/01/11 05:22:06;;;;;;;;;;;6.20;99.90;;;;;;5153116;27;19935;-77
2022/01/11 05:24:32;;;;;;;;;;;6.10;99.90;;;;;;5152403;27;19950;-76
2022/01/11 05:26:57;;;;;;;;;;;6.10;99.90;;;;;;5153419;27;19968;-76
2022/01/11 05:29:23;;;;;;;;;;;6.10;99.90;;;;;;5153787;27;19911;-77
2022/01/11 05:31:49;;;;;;;;;;;6.10;99.90;;;;;;5153979;27;19914;-77
2022/01/11 05:34:14;;;;;;;;;;;6.10;99.90;;;;;;5153181;27;19968;-76
2022/01/11 05:36:40;;;;;;;;;;;6.10;99.90;;;;;;5153894;27;19907;-76
2022/01/11 05:39:05;;;;;;;;;;;6.00;99.90;;;;;;5152769;27;19913;-76
2022/01/11 05:41:32;;;;;;;;;;;6.00;99.90;;;;;;5153810;27;19907;-76
2022/01/11 05:43:57;;;;;;;;;;;6.00;99.90;;;;;;5153283;27;19915;-76
2022/01/11 05:46:23;;;;;;;;;;;6.00;99.90;;;;;;5152787;27;19912;-77
2022/01/11 05:48:48;;;;;;;;;;;6.00;99.90;;;;;;5154042;27;19918;-77
2022/01/11 05:51:17;;;;;;;;;;;5.90;99.90;;;;;;5153230;27;19947;-77
2022/01/11 05:53:43;;;;;;;;;;;5.90;99.90;;;;;;5153740;27;19952;-77
2022/01/11 05:56:09;;;;;;;;;;;5.80;99.90;;;;;;5154133;27;19907;-76
2022/01/11 05:58:35;;;;;;;;;;;5.80;99.90;;;;;;5158014;27;19907;-77
2022/01/11 06:01:00;;;;;;;;;;;5.80;99.90;;;;;;5161386;27;19956;-75
2022/01/11 06:03:26;;;;;;;;;;;5.70;99.90;;;;;;5143946;27;21877;-77
2022/01/11 06:05:52;;;;;;;;;;;5.70;99.90;;;;;;5157697;27;19926;-76
2022/01/11 06:08:17;;;;;;;;;;;5.70;99.90;;;;;;5156502;27;20382;-76
2022/01/11 06:10:44;;;;;;;;;;;5.70;99.90;;;;;;5157200;27;19918;-77
2022/01/11 06:13:10;;;;;;;;;;;5.70;99.90;;;;;;5156954;27;19907;-76
2022/01/11 06:15:35;;;;;;;;;;;5.70;99.90;;;;;;5156680;27;20391;-78
2022/01/11 06:18:01;;;;;;;;;;;5.70;99.90;;;;;;5156753;27;19907;-75
2022/01/11 06:20:27;;;;;;;;;;;5.60;99.90;;;;;;5157070;27;19914;-77
2022/01/11 06:22:53;;;;;;;;;;;5.60;99.90;;;;;;5157391;27;19914;-76
2022/01/11 06:25:19;;;;;;;;;;;5.50;99.90;;;;;;5156150;27;19967;-76
2022/01/11 06:27:44;;;;;;;;;;;5.50;99.90;;;;;;5157212;27;19911;-76
2022/01/11 06:30:10;;;;;;;;;;;5.50;99.90;;;;;;5156242;27;19914;-76
2022/01/11 06:32:37;;;;;;;;;;;5.40;99.90;;;;;;5157302;27;20363;-77
2022/01/11 06:35:03;;;;;;;;;;;5.40;99.90;;;;;;5156230;27;19907;-75
2022/01/11 06:37:29;;;;;;;;;;;5.40;99.90;;;;;;5155882;27;19912;-76
2022/01/11 06:39:54;;;;;;;;;;;5.40;99.90;;;;;;5156886;27;19930;-76
2022/01/11 06:42:20;;;;;;;;;;;5.40;99.90;;;;;;5156134;27;19950;-77
2022/01/11 06:44:46;;;;;;;;;;;5.40;99.90;;;;;;5156846;27;20291;-76
2022/01/11 06:47:11;;;;;;;;;;;5.40;99.90;;;;;;5155717;27;20001;-77
2022/01/11 06:49:37;;;;;;;;;;;5.40;99.90;;;;;;5156717;27;19911;-77
2022/01/11 06:52:03;;;;;;;;;;;5.30;99.90;;;;;;5156168;27;20002;-76
2022/01/11 06:54:29;;;;;;;;;;;5.30;99.90;;;;;;5156182;27;19934;-77
2022/01/11 06:56:54;;;;;;;;;;;5.30;99.90;;;;;;5156270;27;19915;-76
2022/01/11 06:59:20;;;;;;;;;;;5.30;99.90;;;;;;5137057;27;19967;-77
2022/01/11 07:01:46;;;;;;;;;;;5.30;99.90;;;;;;5156373;27;19907;-77
2022/01/11 07:04:11;;;;;;;;;;;5.20;99.90;;;;;;5155638;27;19927;-76
2022/01/11 07:06:37;;;;;;;;;;;5.30;99.90;;;;;;5156471;27;20006;-77
2022/01/11 07:09:03;;;;;;;;;;;5.30;99.90;;;;;;5155348;27;19954;-76
2022/01/11 07:11:29;;;;;;;;;;;5.30;99.90;;;;;;5155614;27;19907;-77
2022/01/11 07:13:54;;;;;;;;;;;5.30;99.90;;;;;;5155994;27;20318;-77
2022/01/11 07:16:20;;;;;;;;;;;5.30;99.90;;;;;;5155497;27;19997;-77
2022/01/11 07:18:47;;;;;;;;;;;5.30;99.90;;;;;;5155690;27;19907;-77
2022/01/11 07:21:12;;;;;;;;;;;5.30;99.90;;;;;;5154943;27;19907;-77
2022/01/11 07:23:38;;;;;;;;;;;5.30;99.90;;;;;;5155673;27;19915;-77
2022/01/11 07:26:07;;;;;;;;;;;5.30;99.90;;;;;;5155473;27;19918;-77
2022/01/11 07:28:33;;;;;;;;;;;5.30;99.90;;;;;;5155490;27;19930;-77
2022/01/11 07:30:59;;;;;;;;;;;5.30;99.90;;;;;;5155733;27;19946;-76
2022/01/11 07:33:24;;;;;;;;;;;5.20;99.90;;;;;;5154556;27;20123;-76
2022/01/11 07:35:50;;;;;;;;;;;5.20;99.90;;;;;;5155749;27;19907;-77
2022/01/11 07:38:16;;;;;;;;;;;5.20;99.90;;;;;;5154825;27;19919;-76
2022/01/11 07:40:41;;;;;;;;;;;5.20;99.90;;;;;;5155747;27;20279;-77
2022/01/11 07:43:07;;;;;;;;;;;5.10;99.90;;;;;;5155106;27;19915;-76
2022/01/11 07:45:33;;;;;;;;;;;5.10;99.90;;;;;;5154552;27;19984;-78
2022/01/11 07:47:58;;;;;;;;;;;5.10;99.90;;;;;;5147907;27;19917;-77
2022/01/11 07:50:24;;;;;;;;;;;5.00;99.90;;;;;;5142597;27;20271;-77
2022/01/11 07:52:51;;;;;;;;;;;5.00;99.90;;;;;;5145783;27;19907;-77
2022/01/11 07:55:17;;;;;;;;;;;5.00;99.90;;;;;;5135809;27;19907;-78
2022/01/11 07:57:43;;;;;;;;;;;5.00;99.90;;;;;;5155105;27;19998;-77
2022/01/11 08:00:09;;;;;;;;;;;5.00;99.90;;;;;;5154610;27;19938;-76
2022/01/11 08:02:34;;;;;;;;;;;5.00;99.90;;;;;;5155133;27;19911;-77
2022/01/11 08:05:00;;;;;;;;;;;5.00;99.90;;;;;;5154893;27;19964;-77
2022/01/11 08:07:26;;;;;;;;;;;5.00;99.90;;;;;;5153857;27;19960;-78
2022/01/11 08:09:51;;;;;;;;;;;5.00;99.90;;;;;;5136513;27;20313;-77
2022/01/11 08:12:17;;;;;;;;;;;5.00;99.90;;;;;;5154147;27;19950;-77
2022/01/11 08:14:42;;;;;;;;;;;4.90;99.90;;;;;;5155022;27;19907;-78
2022/01/11 08:17:08;;;;;;;;;;;4.90;99.90;;;;;;5154595;27;19911;-76
2022/01/11 08:19:33;;;;;;;;;;;4.90;99.90;;;;;;5148762;27;19911;-78
2022/01/11 08:21:59;;;;;;;;;;;4.90;99.90;;;;;;5143329;27;19993;-77
2022/01/11 08:24:25;;;;;;;;;;;4.90;99.90;;;;;;5142422;27;19915;-77
2022/01/11 08:26:51;;;;;;;;;;;4.90;99.90;;;;;;5154753;27;19911;-77
2022/01/11 08:29:18;;;;;;;;;;;4.80;99.90;;;;;;5153867;27;19914;-77
2022/01/11 08:31:44;;;;;;;;;;;4.80;99.90;;;;;;5154735;27;19914;-78
2022/01/11 08:34:13;;;;;;;;;;;4.80;99.90;;;;;;5135079;27;20002;-76
2022/01/11 08:36:40;;;;;;;;;;;4.70;99.90;;;;;;5126808;27;19950;-77
2022/01/11 08:39:05;;;;;;;;;;;4.80;99.90;;;;;;5144672;27;19911;-77
2022/01/11 08:41:31;;;;;;;;;;;4.70;99.90;;;;;;5138156;27;19971;-76
2022/01/11 08:43:56;;;;;;;;;;;4.70;99.90;;;;;;5141605;27;20010;-77
2022/01/11 08:46:22;;;;;;;;;;;4.70;99.90;;;;;;5132644;27;19911;-75
2022/01/11 08:48:47;;;;;;;;;;;4.70;99.90;;;;;;5133206;27;20268;-76
2022/01/11 08:51:13;;;;;;;;;;;4.80;99.90;;;;;;5133117;27;19959;-75
2022/01/11 08:53:39;;;;;;;;;;;4.80;99.90;;;;;;5133159;27;19999;-75
2022/01/11 08:56:05;;;;;;;;;;;4.80;99.90;;;;;;5133446;27;19939;-76
2022/01/11 08:58:31;;;;;;;;;;;4.80;99.90;;;;;;5114268;27;20002;-75
2022/01/11 09:00:57;;;;;;;;;;;4.80;99.90;;;;;;5133194;27;19921;-76
2022/01/11 09:03:23;;;;;;;;;;;4.80;99.90;;;;;;5132314;27;20276;-75
2022/01/11 09:05:52;;;;;;;;;;;4.80;99.90;;;;;;5132727;27;19919;-75
2022/01/11 09:08:18;;;;;;;;;;;4.80;99.90;;;;;;5132394;27;19912;-74
2022/01/11 09:10:44;;;;;;;;;;;4.80;99.90;;;;;;5133290;28;19915;-76
2022/01/11 09:13:09;;;;;;;;;;;4.80;99.90;;;;;;5132975;28;20375;-76
2022/01/11 09:15:35;;;;;;;;;;;4.90;99.90;;;;;;5132404;28;19903;-76
2022/01/11 09:18:01;;;;;;;;;;;4.90;99.90;;;;;;5134929;27;19919;-76
2022/01/11 09:20:26;;;;;;;;;;;4.90;99.90;;;;;;5141403;27;19911;-76
2022/01/11 09:22:53;;;;;;;;;;;4.90;99.90;;;;;;5149849;27;20006;-75
2022/01/11 09:25:19;;;;;;;;;;;4.90;99.90;;;;;;5152898;27;19964;-75
2022/01/11 09:27:44;;;;;;;;;;;4.90;99.90;;;;;;5156914;27;19907;-76
2022/01/11 09:30:11;;;;;;;;;;;4.80;99.90;;;;;;5154677;27;20407;-77
2022/01/11 09:32:37;;;;;;;;;;;4.90;99.90;;;;;;5156979;27;19940;-77
2022/01/11 09:35:04;;;;;;;;;;;4.90;99.90;;;;;;5119130;27;20384;-77
2022/01/11 09:37:29;;;;;;;;;;;4.90;99.90;;;;;;5154654;27;19911;-78
2022/01/11 09:39:56;;;;;;;;;;;4.80;99.90;;;;;;5158111;27;20366;-78
2022/01/11 09:42:22;;;;;;;;;;;4.80;99.90;;;;;;5157124;27;19971;-77
2022/01/11 09:44:48;;;;;;;;;;;4.90;99.90;;;;;;5157683;27;19990;-76
2022/01/11 09:47:14;;;;;;;;;;;4.90;99.90;;;;;;5157933;27;19942;-76
2022/01/11 09:49:40;;;;;;;;;;;4.90;99.90;;;;;;5137918;27;19911;-76
2022/01/11 09:52:09;;;;;;;;;;;5.00;99.90;;;;;;5157735;27;19907;-77
2022/01/11 09:54:47;;;;;;;;;;;5.10;99.90;;;;;;5156974;27;19917;-76
2022/01/11 09:57:13;;;;;;;;;;;5.10;99.90;;;;;;5157712;27;19911;-76
2022/01/11 09:59:39;;;;;;;;;;;5.20;99.90;;;;;;5156916;27;19911;-75
2022/01/11 10:02:05;;;;;;;;;;;5.20;99.90;;;;;;5157158;27;20386;-77
2022/01/11 10:04:32;;;;;;;;;;;5.30;99.90;;;;;;5156064;27;19919;-76
2022/01/11 10:06:59;;;;;;;;;;;5.30;99.90;;;;;;5157200;27;19917;-77
2022/01/11 10:09:26;;;;;;;;;;;5.30;99.90;;;;;;5156360;27;20359;-76
2022/01/11 10:11:52;;;;;;;;;;;5.30;99.90;;;;;;5156692;27;20001;-77
2022/01/11 10:14:23;;;;;;;;;;;5.20;99.90;;;;;;5156624;27;19922;-76
2022/01/11 10:16:50;;;;;;;;;;;5.20;99.90;;;;;;5156815;27;19911;-77
2022/01/11 10:19:20;;;;;;;;;;;5.10;99.90;;;;;;5156821;27;19942;-76
2022/01/11 10:21:47;;;;;;;;;;;5.00;99.90;;;;;;5138456;27;19966;-76
2022/01/11 10:24:35;;;;;;;;;;;5.00;99.90;;;;;;5156747;27;19918;-76
2022/01/11 10:27:02;;;;;;;;;;;4.90;99.90;;;;;;5157238;27;20267;-76
2022/01/11 10:29:35;;;;;;;;;;;4.90;99.90;;;;;;5151039;27;19915;-76
2022/01/11 10:32:09;;;;;;;;;;;4.90;99.90;;;;;;5146895;27;19911;-77
2022/01/11 10:34:34;;;;;;;;;;;4.90;99.90;;;;;;5138117;27;19951;-76
2022/01/11 10:37:01;;;;;;;;;;;4.90;99.90;;;;;;5136062;27;19915;-77
2022/01/11 10:39:29;;;;;;;;;;;4.90;99.90;;;;;;5135005;27;19907;-77
2022/01/11 10:41:54;;;;;;;;;;;4.90;99.90;;;;;;5143944;27;19911;-78
2022/01/11 10:44:40;;;;;;;;;;;5.00;99.90;;;;;;5146358;27;19911;-75
2022/01/11 10:47:06;;;;;;;;;;;5.00;99.90;;;;;;5103216;27;19924;-75
2022/01/11 10:49:31;;;;;;;;;;;5.10;99.90;;;;;;5154543;27;20413;-76
2022/01/11 10:52:16;;;;;;;;;;;5.20;99.90;;;;;;5156802;27;20306;-76
2022/01/11 10:54:45;;;;;;;;;;;5.20;99.90;;;;;;5155552;27;19907;-76
2022/01/11 10:57:18;;;;;;;;;;;5.30;99.90;;;;;;5155653;27;20031;-77
2022/01/11 11:00:02;;;;;;;;;;;5.40;99.90;;;;;;5155199;27;20379;-77
2022/01/11 11:02:28;;;;;;;;;;;5.50;99.90;;;;;;5155072;27;19972;-77
2022/01/11 11:04:55;;;;;;;;;;;5.70;99.90;;;;;;5155516;27;20359;-77
2022/01/11 11:07:23;;;;;;;;;;;5.70;99.90;;;;;;5155393;27;20272;-75
2022/01/11 11:09:52;;;;;;;;;;;5.80;99.90;;;;;;5155424;27;19998;-77
2022/01/11 11:12:22;;;;;;;;;;;6.00;99.90;;;;;;5155774;27;19957;-76
2022/01/11 11:14:52;;;;;;;;;;;6.10;99.90;;;;;;5156207;27;19911;-76
2022/01/11 11:17:44;;;;;;;;;;;6.30;99.90;;;;;;5137362;27;20344;-76
2022/01/11 11:20:10;;;;;;;;;;;6.50;99.90;;;;;;5151130;27;20260;-76
2022/01/11 11:22:36;;;;;;;;;;;6.60;99.90;;;;;;5155366;27;20001;-76
2022/01/11 11:25:03;;;;;;;;;;;6.60;99.90;;;;;;5155300;27;20022;-76
2022/01/11 11:27:31;;;;;;;;;;;6.70;99.90;;;;;;5155041;27;19911;-76
2022/01/11 11:29:57;;;;;;;;;;;6.70;99.90;;;;;;5155955;27;19907;-76
2022/01/11 11:32:23;;;;;;;;;;;6.80;99.90;;;;;;5155603;27;19957;-75
2022/01/11 11:34:49;;;;;;;;;;;6.90;99.90;;;;;;5155935;27;19947;-76
2022/01/11 11:37:26;;;;;;;;;;;7.00;99.90;;;;;;5155813;27;19997;-75
2022/01/11 11:39:57;;;;;;;;;;;7.00;99.90;;;;;;5155688;27;19928;-76
2022/01/11 11:42:23;;;;;;;;;;;7.10;99.90;;;;;;5155172;27;20338;-76
2022/01/11 11:44:48;;;;;;;;;;;7.20;99.90;;;;;;5155016;27;19922;-76
2022/01/11 11:47:14;;;;;;;;;;;7.30;99.90;;;;;;5155519;27;20356;-76
2022/01/11 11:49:40;;;;;;;;;;;7.30;99.90;;;;;;5154707;27;20374;-76
2022/01/11 11:52:19;;;;;;;;;;;7.40;99.90;;;;;;5155345;27;19907;-77
2022/01/11 11:54:49;;;;;;;;;;;7.50;99.90;;;;;;5154068;27;20468;-76
2022/01/11 11:57:16;;;;;;;;;;;7.60;99.90;;;;;;5155258;27;20001;-75
2022/01/11 11:59:48;;;;;;;;;;;7.70;99.90;;;;;;5154228;27;20740;-77
2022/01/11 12:02:28;;;;;;;;;;;7.80;99.90;;;;;;5154759;27;19911;-77
2022/01/11 12:04:54;;;;;;;;;;;7.90;99.90;;;;;;5154992;27;19920;-77
2022/01/11 12:07:41;;;;;;;;;;;7.90;99.90;;;;;;5157970;27;19986;-76
2022/01/11 12:10:12;;;;;;;;;;;8.00;99.90;;;;;;5159301;27;20268;-76
2022/01/11 12:12:51;;;;;;;;;;;8.10;99.90;;;;;;5158462;27;19914;-75
2022/01/11 12:15:23;;;;;;;;;;;8.10;99.90;;;;;;5155672;27;19907;-76
2022/01/11 12:18:08;;;;;;;;;;;8.00;99.90;;;;;;5154462;27;19964;-76
2022/01/11 12:20:58;;;;;;;;;;;8.10;99.90;;;;;;5154110;27;19908;-76
2022/01/11 12:23:35;;;;;;;;;;;8.20;99.90;;;;;;5154641;27;19907;-76
2022/01/11 12:26:19;;;;;;;;;;;8.20;99.90;;;;;;5154612;27;19962;-77
2022/01/11 12:28:45;;;;;;;;;;;8.20;99.90;;;;;;5153874;27;19903;-76
2022/01/11 12:31:30;;;;;;;;;;;8.20;99.90;;;;;;5154612;27;19914;-76
2022/01/11 12:33:56;;;;;;;;;;;8.20;99.90;;;;;;5154648;27;19915;-75
2022/01/11 12:36:22;;;;;;;;;;;8.20;99.90;;;;;;5154605;27;19907;-76
2022/01/11 12:39:07;;;;;;;;;;;8.20;99.90;;;;;;5135107;27;19914;-76
2022/01/11 12:41:34;;;;;;;;;;;8.30;99.90;;;;;;5152681;27;19998;-75
2022/01/11 12:44:21;;;;;;;;;;;8.30;99.90;;;;;;5154719;27;19911;-75
2022/01/11 12:46:51;;;;;;;;;;;8.30;99.90;;;;;;5153553;27;20016;-77
2022/01/11 12:49:16;;;;;;;;;;;8.30;99.90;;;;;;5154368;27;19907;-76
2022/01/11 12:51:50;;;;;;;;;;;8.30;99.90;;;;;;5153432;27;20054;-75
2022/01/11 12:54:35;;;;;;;;;;;8.30;99.90;;;;;;5141078;27;19922;-76
2022/01/11 12:57:03;;;;;;;;;;;8.30;99.90;;;;;;5144795;27;19923;-76
2022/01/11 12:59:30;;;;;;;;;;;8.30;99.90;;;;;;5143391;27;20287;-76
2022/01/11 13:01:57;;;;;;;;;;;8.40;99.90;;;;;;5154181;27;20003;-76
2022/01/11 13:04:38;;;;;;;;;;;8.30;99.90;;;;;;5153504;27;19919;-76
2022/01/11 13:07:10;;;;;;;;;;;8.30;99.90;;;;;;5153797;27;19914;-76
2022/01/11 13:09:36;;;;;;;;;;;8.30;99.90;;;;;;5153397;27;19953;-75
2022/01/11 13:12:02;;;;;;;;;;;8.30;99.90;;;;;;5153521;27;19961;-77
2022/01/11 13:14:37;;;;;;;;;;;8.40;99.90;;;;;;5152466;27;19915;-76
2022/01/11 13:17:03;;;;;;;;;;;8.40;99.90;;;;;;5153715;27;20367;-77
2022/01/11 13:19:32;;;;;;;;;;;8.50;99.90;;;;;;5152431;27;20279;-75
2022/01/11 13:22:02;;;;;;;;;;;8.50;99.90;;;;;;5133029;27;20053;-75
2022/01/11 13:24:34;;;;;;;;;;;8.60;99.90;;;;;;5132234;28;19920;-74
2022/01/11 13:27:00;;;;;;;;;;;8.50;99.90;;;;;;5132694;28;20001;-75
2022/01/11 13:29:27;;;;;;;;;;;8.60;99.90;;;;;;5132501;28;20012;-75
2022/01/11 13:31:53;;;;;;;;;;;8.60;99.90;;;;;;5131832;28;20021;-74
2022/01/11 13:34:22;;;;;;;;;;;8.60;99.90;;;;;;5132384;28;20364;-76
2022/01/11 13:36:51;;;;;;;;;;;8.60;99.90;;;;;;5131578;28;20207;-76
2022/01/11 13:39:22;;;;;;;;;;;8.60;99.90;;;;;;5132230;28;19933;-76
2022/01/11 13:41:51;;;;;;;;;;;8.60;99.90;;;;;;5131076;28;20479;-75
2022/01/11 13:44:16;;;;;;;;;;;8.60;99.90;;;;;;5132312;28;19912;-76
2022/01/11 13:46:43;;;;;;;;;;;8.50;99.90;;;;;;5131358;28;20006;-78
2022/01/11 13:49:12;;;;;;;;;;;8.50;99.90;;;;;;5145571;27;19915;-75
2022/01/11 13:51:38;;;;;;;;;;;8.50;99.90;;;;;;5152003;27;19910;-74
2022/01/11 13:54:05;;;;;;;;;;;8.40;99.90;;;;;;5152540;27;20371;-75
2022/01/11 13:56:32;;;;;;;;;;;8.40;99.90;;;;;;5152324;27;19928;-75
2022/01/11 13:59:00;;;;;;;;;;;8.30;99.90;;;;;;5152544;27;20317;-76
2022/01/11 14:01:26;;;;;;;;;;;8.30;99.90;;;;;;5153200;27;19907;-75
2022/01/11 14:04:12;;;;;;;;;;;8.20;99.90;;;;;;5151424;27;20006;-76
2022/01/11 14:06:39;;;;;;;;;;;8.20;99.90;;;;;;5151110;27;20300;-75
2022/01/11 14:09:05;;;;;;;;;;;8.10;99.90;;;;;;5152840;27;20415;-76
2022/01/11 14:11:34;;;;;;;;;;;8.10;99.90;;;;;;5152944;27;19908;-75
2022/01/11 14:14:01;;;;;;;;;;;8.10;99.90;;;;;;5152882;27;19907;-75
2022/01/11 14:16:32;;;;;;;;;;;8.10;99.90;;;;;;5152560;27;20055;-75
2022/01/11 14:19:16;;;;;;;;;;;8.10;99.90;;;;;;5156355;27;19946;-77
2022/01/11 14:21:50;;;;;;;;;;;8.20;99.90;;;;;;5155884;27;19907;-77
2022/01/11 14:24:15;;;;;;;;;;;8.10;99.90;;;;;;5149942;27;19940;-78
2022/01/11 14:26:41;;;;;;;;;;;8.10;99.90;;;;;;5134916;27;20006;-77
2022/01/11 14:29:07;;;;;;;;;;;8.10;99.90;;;;;;5135800;27;20313;-76
2022/01/11 14:31:35;;;;;;;;;;;8.10;99.90;;;;;;5135185;27;20415;-75
2022/01/11 14:34:15;;;;;;;;;;;8.10;99.90;;;;;;5135391;27;19908;-76
2022/01/11 14:36:41;;;;;;;;;;;8.10;99.90;;;;;;5134507;27;19908;-75